Hauptseite
METAR-TAF:

METAR-TAF

Flughäfen :

Robert L. Bradshaw International Airport

Basseterre, St. Kitts und Nevis

Breite: 17-18N, Länge: 062-41W, Höhe: 48 m

Beobachtung

Neuester Wetterbericht von vor 7 Stunden und 19 Minuten, um 00:00 UTC
Wind 9 kt aus Nordost
Temperatur 25°C
Luftfeuchtigkeit 79%
Luftdruck 1017 hPa
Sichtweite 10 km oder mehr
Leicht bewölkt in der Höhe von 2000 ft

METAR: TKPK 280000Z 04009KT 9999 FEW020 25/21 Q1017

Zeit: 03:19 (07:19 UTC)

Prognose

Neuester Wetterbericht von vor 8 Stunden und 19 Minuten, um 23:00 UTC
Gültige Prognose vom 28 um 00 UTC bis 28 um 24 UTC
Wind 12 kt aus Ost/Nordost
Sichtweite 10 km oder mehr
Aufgelockert bewölkt in der Höhe von 2000 ft
Wahrscheinlichkeit 30% :
Zeitweise
vom 28 um 06 UTC bis 28 um 12 UTC
Regenschauer,

TAF: TKPK 272300Z 2800/2824 07012KT 9999 SCT020 PROB30 TEMPO 2806/2812 SHRA

Wetterbeobachtungen und Prognosen von mehr als 4000 Flughäfen (METAR und TAF Bericht).

Die verfügbaren Stationen werden durch gelbe und rote Markierungen auf der Karte dargestellt.

Führen Sie die Maus auf sie, um den Namen der Station zu sehen.

Darauf klicken, um die Beobachtung von Wetterbeobachtungen und Prognosen zu sehen.

Um die Karte zu ändern : klicken Sie auf den grünen Tasten mit einem schwarzen Kreuz Zum Vergrößern, auf den grünen Button mit einem Gedankenstrich zu verkleinern, oder auf die grünen Pfeile für benachbarte Karten.


METAR-TAF: